createdAt,value
2018-07-14T00:00:17.679Z,79.91
2018-07-14T00:02:46.750Z,80.26
2018-07-14T00:05:15.965Z,80.87
2018-07-14T00:07:45.561Z,80.85
2018-07-14T00:10:14.678Z,80.91
2018-07-14T00:12:43.838Z,81.21
2018-07-14T00:15:12.951Z,82.23
2018-07-14T00:17:42.094Z,82.32
2018-07-14T00:20:11.238Z,81.96
2018-07-14T00:22:40.997Z,82.08
2018-07-14T00:25:10.134Z,81.40
2018-07-14T00:27:39.342Z,81.26
2018-07-14T00:30:08.527Z,81.87
2018-07-14T00:32:38.250Z,82.46
2018-07-14T00:35:07.361Z,83.21
2018-07-14T00:37:36.515Z,82.27
2018-07-14T00:40:05.819Z,82.85
2018-07-14T00:42:35.253Z,83.50
2018-07-14T00:45:04.423Z,84.58
2018-07-14T00:47:33.509Z,84.83
2018-07-14T00:50:02.614Z,84.89
2018-07-14T00:52:32.307Z,84.45
2018-07-14T00:55:01.438Z,85.93
2018-07-14T00:57:30.635Z,86.35
2018-07-14T00:59:59.878Z,87.06
2018-07-14T01:02:32.818Z,86.35
2018-07-14T01:05:02.663Z,87.13
2018-07-14T01:07:32.556Z,87.19
2018-07-14T01:10:02.751Z,86.57
2018-07-14T01:12:32.457Z,87.12
2018-07-14T01:15:01.724Z,87.31
2018-07-14T01:17:30.797Z,86.71
2018-07-14T01:20:00.226Z,86.52
2018-07-14T01:22:29.327Z,87.23
2018-07-14T01:24:58.394Z,87.47
2018-07-14T01:27:27.510Z,87.53
2018-07-14T01:29:56.606Z,86.54
2018-07-14T01:32:25.693Z,86.56
2018-07-14T01:34:54.942Z,86.80
2018-07-14T01:37:24.037Z,87.30
2018-07-14T01:39:53.215Z,88.15
2018-07-14T01:42:22.281Z,88.20
2018-07-14T01:44:51.360Z,88.76
2018-07-14T01:47:20.446Z,88.65
2018-07-14T01:49:49.519Z,88.70
2018-07-14T01:52:18.709Z,89.23
2018-07-14T01:54:47.767Z,89.01
2018-07-14T01:57:16.835Z,88.97
2018-07-14T01:59:45.966Z,89.45
2018-07-14T02:02:15.770Z,89.28
2018-07-14T02:04:45.875Z,89.24
2018-07-14T02:07:14.970Z,90.00
2018-07-14T02:09:44.066Z,90.20
2018-07-14T02:12:13.875Z,90.98
2018-07-14T02:14:42.693Z,91.49
2018-07-14T02:17:11.771Z,92.25
2018-07-14T02:19:40.901Z,93.27
2018-07-14T02:22:09.955Z,93.58
2018-07-14T02:24:39.110Z,93.67
2018-07-14T02:27:08.231Z,94.08
2018-07-14T02:29:37.294Z,94.66
2018-07-14T02:32:06.698Z,94.61
2018-07-14T02:34:36.193Z,95.36
2018-07-14T02:37:05.614Z,95.17
2018-07-14T02:39:35.106Z,95.09
2018-07-14T02:42:04.727Z,95.16
2018-07-14T02:44:34.019Z,94.64
2018-07-14T02:47:03.576Z,94.63
2018-07-14T02:49:33.057Z,93.38
2018-07-14T02:52:02.592Z,92.26
2018-07-14T02:54:31.463Z,92.02
2018-07-14T02:57:00.590Z,90.79
2018-07-14T02:59:30.051Z,91.54
2018-07-14T03:01:59.211Z,91.03
2018-07-14T03:04:28.486Z,91.51
2018-07-14T03:06:57.568Z,91.80
2018-07-14T03:09:26.631Z,91.69
2018-07-14T03:11:55.683Z,92.19
2018-07-14T03:14:25.173Z,92.91
2018-07-14T03:16:54.296Z,94.04
2018-07-14T03:19:23.414Z,94.58
2018-07-14T03:21:52.728Z,94.32
2018-07-14T03:24:21.801Z,94.25
2018-07-14T03:26:50.897Z,93.33
2018-07-14T03:29:20.023Z,93.73
2018-07-14T03:31:49.098Z,92.75
2018-07-14T03:34:18.195Z,92.64
2018-07-14T03:36:47.425Z,92.54
2018-07-14T03:39:16.431Z,91.40
2018-07-14T03:41:45.511Z,91.31
2018-07-14T03:44:15.178Z,90.24
2018-07-14T03:46:44.242Z,89.96
2018-07-14T03:49:13.315Z,89.59
2018-07-14T03:51:42.390Z,89.55
2018-07-14T03:54:11.472Z,89.37
2018-07-14T03:56:40.598Z,90.33
2018-07-14T03:59:09.675Z,90.43
2018-07-14T04:01:38.747Z,90.65
2018-07-14T04:04:07.835Z,90.71
2018-07-14T04:06:36.995Z,91.11
2018-07-14T04:09:07.141Z,90.57
2018-07-14T04:11:36.438Z,89.89
2018-07-14T04:14:05.895Z,89.59
2018-07-14T04:16:34.998Z,89.26
2018-07-14T04:19:04.211Z,88.77
2018-07-14T04:21:33.474Z,87.05
2018-07-14T04:24:02.855Z,87.01
2018-07-14T04:26:32.205Z,85.92
2018-07-14T04:29:01.278Z,85.30
2018-07-14T04:31:30.342Z,85.66
2018-07-14T04:33:59.535Z,87.33
2018-07-14T04:36:28.606Z,87.22
2018-07-14T04:38:57.726Z,88.04
2018-07-14T04:41:26.870Z,87.32
2018-07-14T04:43:55.935Z,86.00
2018-07-14T04:46:25.003Z,84.23
2018-07-14T04:48:54.107Z,81.42
2018-07-14T04:51:23.178Z,80.35
2018-07-14T04:53:52.255Z,77.85
2018-07-14T04:56:21.317Z,74.57
2018-07-14T04:58:50.898Z,72.63
2018-07-14T05:01:20.319Z,71.09
2018-07-14T05:03:49.369Z,71.02
2018-07-14T05:06:18.857Z,70.23
2018-07-14T05:08:47.928Z,67.04
2018-07-14T05:11:16.996Z,65.68
2018-07-14T05:13:46.046Z,66.30
2018-07-14T05:16:15.235Z,68.41
2018-07-14T05:18:44.349Z,70.16
2018-07-14T05:21:14.023Z,70.88
2018-07-14T05:23:43.047Z,71.59
2018-07-14T05:26:12.186Z,73.34
2018-07-14T05:28:41.336Z,71.46
2018-07-14T05:31:10.342Z,68.72
2018-07-14T05:33:39.482Z,65.15
2018-07-14T05:36:09.579Z,64.76
2018-07-14T05:38:39.150Z,61.74
2018-07-14T05:41:08.218Z,60.21
2018-07-14T05:43:37.273Z,56.43
2018-07-14T05:46:06.431Z,56.14
2018-07-14T05:48:35.573Z,55.24
2018-07-14T05:51:04.708Z,57.39
2018-07-14T05:53:33.798Z,54.81
2018-07-14T05:56:02.859Z,51.98
2018-07-14T05:58:31.934Z,48.67
2018-07-14T06:01:01.047Z,48.10
2018-07-14T06:03:30.107Z,46.48
2018-07-14T06:05:59.170Z,49.48
2018-07-14T06:08:28.242Z,49.18
2018-07-14T06:10:57.663Z,49.08
2018-07-14T06:13:26.726Z,47.35
2018-07-14T06:15:55.902Z,45.42
2018-07-14T06:18:25.684Z,45.84
2018-07-14T06:20:54.443Z,45.25
2018-07-14T06:23:23.508Z,46.44
2018-07-14T06:25:52.684Z,45.04
2018-07-14T06:28:22.178Z,43.04
2018-07-14T06:30:51.266Z,43.11
2018-07-14T06:33:20.338Z,45.33
2018-07-14T06:35:50.886Z,45.77
2018-07-14T06:38:20.076Z,46.67
2018-07-14T06:40:49.317Z,47.63
2018-07-14T06:43:18.442Z,48.94
2018-07-14T06:45:47.503Z,49.80
2018-07-14T06:48:16.612Z,50.60
2018-07-14T06:50:45.699Z,51.77
2018-07-14T06:53:14.758Z,52.26
2018-07-14T06:55:43.818Z,50.98
2018-07-14T06:58:12.899Z,50.85
2018-07-14T07:00:41.959Z,46.44
2018-07-14T07:03:11.005Z,44.29
2018-07-14T07:05:40.074Z,42.08
2018-07-14T07:08:09.138Z,39.15
2018-07-14T07:10:38.243Z,39.21
2018-07-14T07:13:07.358Z,38.44
2018-07-14T07:15:36.435Z,36.77
2018-07-14T07:18:05.715Z,35.30
2018-07-14T07:20:34.965Z,35.46
2018-07-14T07:23:04.499Z,35.89
2018-07-14T07:25:33.617Z,35.52
2018-07-14T07:28:02.763Z,35.80
2018-07-14T07:30:31.814Z,34.86
2018-07-14T07:33:01.059Z,35.26
2018-07-14T07:35:30.099Z,35.17
2018-07-14T07:37:59.154Z,34.43
2018-07-14T07:40:28.259Z,35.38
2018-07-14T07:42:57.347Z,38.31
2018-07-14T07:45:26.423Z,37.45
2018-07-14T07:47:56.162Z,36.82
2018-07-14T07:50:25.678Z,32.88
2018-07-14T07:52:55.678Z,31.36
2018-07-14T07:55:25.194Z,31.59
2018-07-14T07:57:54.488Z,31.10
2018-07-14T08:00:23.858Z,31.87
2018-07-14T08:02:53.590Z,30.37
2018-07-14T08:05:22.703Z,28.53
2018-07-14T08:07:51.762Z,27.13
2018-07-14T08:10:20.831Z,28.65
2018-07-14T08:12:49.926Z,27.04
2018-07-14T08:15:18.978Z,26.67
2018-07-14T08:17:48.039Z,24.92
2018-07-14T08:20:17.270Z,24.78
2018-07-14T08:22:47.205Z,24.80
2018-07-14T08:25:16.224Z,22.28
2018-07-14T08:27:45.350Z,21.74
2018-07-14T08:30:14.476Z,23.09
2018-07-14T08:32:43.583Z,23.33
2018-07-14T08:35:13.407Z,24.05
2018-07-14T08:37:42.358Z,22.60
2018-07-14T08:40:11.739Z,24.37
2018-07-14T08:42:40.804Z,23.66
2018-07-14T08:45:09.890Z,22.02
2018-07-14T08:47:39.922Z,19.27
2018-07-14T08:50:08.674Z,20.09
2018-07-14T08:52:37.802Z,21.87
2018-07-14T08:55:07.393Z,19.38
2018-07-14T08:57:38.579Z,19.40
2018-07-14T09:00:08.110Z,19.67
2018-07-14T09:02:37.814Z,19.47
2018-07-14T09:05:07.354Z,19.54
2018-07-14T09:07:37.031Z,18.29
2018-07-14T09:10:06.810Z,17.57
2018-07-14T09:12:36.062Z,18.21
2018-07-14T09:15:05.163Z,20.25
2018-07-14T09:17:34.205Z,19.84
2018-07-14T09:20:04.323Z,19.81
2018-07-14T09:22:33.979Z,20.65
2018-07-14T09:25:03.198Z,20.71
2018-07-14T09:27:32.431Z,23.64
2018-07-14T09:30:01.183Z,21.29
2018-07-14T09:32:30.823Z,22.84
2018-07-14T09:35:00.606Z,22.28
2018-07-14T09:37:30.601Z,23.55
2018-07-14T09:39:59.643Z,22.09
2018-07-14T09:42:28.682Z,20.87
2018-07-14T09:44:57.755Z,21.73
2018-07-14T09:47:26.962Z,23.09
2018-07-14T09:49:56.009Z,20.42
2018-07-14T09:52:25.078Z,22.19
2018-07-14T09:54:54.194Z,25.05
2018-07-14T09:57:23.275Z,22.80
2018-07-14T09:59:53.246Z,19.19
2018-07-14T10:02:23.442Z,19.77
2018-07-14T10:04:53.207Z,22.14
2018-07-14T10:07:22.526Z,21.25
2018-07-14T10:09:51.803Z,20.56
2018-07-14T10:12:22.281Z,19.45
2018-07-14T10:14:51.651Z,20.37
2018-07-14T10:17:21.113Z,20.49
2018-07-14T10:19:49.801Z,20.57
2018-07-14T10:22:19.802Z,20.76
2018-07-14T10:24:48.803Z,22.81
2018-07-14T10:27:17.846Z,21.03
2018-07-14T10:29:46.897Z,21.07
2018-07-14T10:32:15.954Z,18.51
2018-07-14T10:34:45.071Z,17.52
2018-07-14T10:37:14.147Z,16.52
2018-07-14T10:39:43.270Z,15.68
2018-07-14T10:42:12.445Z,15.99
2018-07-14T10:44:41.698Z,15.70
2018-07-14T10:47:10.755Z,16.01
2018-07-14T10:49:39.819Z,17.33
2018-07-14T10:52:09.342Z,17.52
2018-07-14T10:54:38.998Z,17.68
2018-07-14T10:57:08.509Z,15.48
2018-07-14T10:59:37.565Z,15.28
2018-07-14T11:02:06.764Z,18.64
2018-07-14T11:04:35.587Z,17.15
2018-07-14T11:07:04.770Z,19.83
2018-07-14T11:09:33.968Z,20.87
2018-07-14T11:12:03.092Z,21.41
2018-07-14T11:14:32.134Z,19.26
2018-07-14T11:17:01.198Z,18.28
2018-07-14T11:19:30.265Z,17.65
2018-07-14T11:21:59.330Z,16.96
2018-07-14T11:24:28.538Z,16.70
2018-07-14T11:26:57.819Z,17.96
2018-07-14T11:29:27.006Z,17.46
2018-07-14T11:31:56.238Z,17.08
2018-07-14T11:34:25.476Z,17.21
2018-07-14T11:36:54.446Z,16.84
2018-07-14T11:39:23.485Z,16.44
2018-07-14T11:41:52.554Z,18.00
2018-07-14T11:44:21.605Z,19.55
2018-07-14T11:46:50.958Z,20.62
2018-07-14T11:49:20.295Z,19.42
2018-07-14T11:51:49.385Z,18.74
2018-07-14T11:54:18.812Z,18.27
2018-07-14T11:56:47.872Z,19.33
2018-07-14T11:59:17.022Z,22.25
2018-07-14T12:01:46.064Z,22.91
2018-07-14T12:04:15.138Z,25.26
2018-07-14T12:06:44.206Z,26.77
2018-07-14T12:09:13.240Z,28.18
2018-07-14T12:11:42.510Z,30.41
2018-07-14T12:14:11.769Z,31.36
2018-07-14T12:16:40.386Z,31.45
2018-07-14T12:19:09.478Z,29.79
2018-07-14T12:21:38.554Z,32.15
2018-07-14T12:24:07.490Z,32.50
2018-07-14T12:26:36.609Z,30.46
2018-07-14T12:29:05.698Z,30.83
2018-07-14T12:31:34.767Z,31.49
2018-07-14T12:34:03.818Z,29.80
2018-07-14T12:36:32.948Z,28.26
2018-07-14T12:39:01.965Z,21.00
2018-07-14T12:41:31.019Z,16.74
2018-07-14T12:44:00.162Z,15.08
2018-07-14T12:46:29.207Z,14.89
2018-07-14T12:48:58.258Z,15.11
2018-07-14T12:51:27.366Z,15.00
2018-07-14T12:53:56.440Z,17.72
2018-07-14T12:56:25.478Z,18.30
2018-07-14T12:58:54.563Z,21.33
2018-07-14T13:01:23.623Z,26.06
2018-07-14T13:03:52.737Z,27.86
2018-07-14T13:06:21.799Z,29.24
2018-07-14T13:08:50.862Z,29.02
2018-07-14T13:11:20.182Z,27.50
2018-07-14T13:13:49.266Z,27.32
2018-07-14T13:16:18.321Z,27.83
2018-07-14T13:18:47.443Z,27.48
2018-07-14T13:21:16.601Z,27.61
2018-07-14T13:23:46.574Z,26.47
2018-07-14T13:26:15.843Z,22.03
2018-07-14T13:28:45.023Z,21.28
2018-07-14T13:31:13.636Z,21.27
2018-07-14T13:33:42.714Z,20.50
2018-07-14T13:36:11.828Z,18.74
2018-07-14T13:38:51.260Z,17.60
2018-07-14T13:41:09.910Z,16.61
2018-07-14T13:43:39.026Z,19.78
2018-07-14T13:46:08.115Z,19.34
2018-07-14T13:48:37.183Z,20.76
2018-07-14T13:51:06.338Z,24.36
2018-07-14T13:53:35.411Z,21.68
2018-07-14T13:56:04.469Z,22.35
2018-07-14T13:58:33.554Z,21.83
2018-07-14T14:01:02.591Z,21.57
2018-07-14T14:03:31.634Z,21.65
2018-07-14T14:06:00.708Z,20.85
2018-07-14T14:08:29.745Z,20.33
2018-07-14T14:10:58.794Z,19.39
2018-07-14T14:13:28.858Z,21.98
2018-07-14T14:15:57.942Z,21.64
2018-07-14T14:18:27.007Z,21.85
2018-07-14T14:20:56.083Z,24.31
2018-07-14T14:23:25.134Z,24.73
2018-07-14T14:25:54.203Z,26.21
2018-07-14T14:28:23.015Z,25.61
2018-07-14T14:30:52.061Z,27.75
2018-07-14T14:33:21.134Z,27.89
2018-07-14T14:35:50.214Z,27.05
2018-07-14T14:38:18.864Z,27.45
2018-07-14T14:40:47.954Z,28.10
2018-07-14T14:43:17.014Z,28.43
2018-07-14T14:45:46.063Z,28.76
2018-07-14T14:48:15.136Z,27.54
2018-07-14T14:50:44.224Z,25.29
2018-07-14T14:53:14.323Z,24.03
2018-07-14T14:55:43.667Z,22.41
2018-07-14T14:58:12.699Z,21.37
2018-07-14T15:00:41.751Z,20.31
2018-07-14T15:03:10.876Z,22.05
2018-07-14T15:05:39.963Z,19.08
2018-07-14T15:08:09.006Z,18.31
2018-07-14T15:10:38.103Z,17.11
2018-07-14T15:13:07.164Z,18.17
2018-07-14T15:15:36.256Z,18.65
2018-07-14T15:18:05.345Z,19.71
2018-07-14T15:20:34.422Z,19.17
2018-07-14T15:23:03.490Z,19.66
2018-07-14T15:25:32.564Z,19.07
2018-07-14T15:28:01.611Z,17.87
2018-07-14T15:30:30.870Z,18.81
2018-07-14T15:33:00.302Z,20.16
2018-07-14T15:35:29.215Z,19.61
2018-07-14T15:37:58.270Z,20.11
2018-07-14T15:40:27.315Z,21.84
2018-07-14T15:42:56.387Z,25.45
2018-07-14T15:45:25.434Z,28.36
2018-07-14T15:47:54.478Z,29.62
2018-07-14T15:50:23.959Z,29.23
2018-07-14T15:52:53.320Z,28.17
2018-07-14T15:55:22.087Z,28.58
2018-07-14T15:57:51.315Z,27.63
2018-07-14T16:00:20.519Z,28.69
2018-07-14T16:02:49.472Z,29.48
2018-07-14T16:05:18.745Z,27.75
2018-07-14T16:07:47.430Z,27.35
2018-07-14T16:10:16.550Z,27.59
2018-07-14T16:12:45.594Z,27.23
2018-07-14T16:15:14.689Z,27.88
2018-07-14T16:17:43.793Z,29.67
2018-07-14T16:20:12.872Z,31.19
2018-07-14T16:22:41.982Z,31.03
2018-07-14T16:25:11.071Z,30.78
2018-07-14T16:27:40.134Z,31.41
2018-07-14T16:30:09.394Z,30.39
2018-07-14T16:32:38.670Z,29.17
2018-07-14T16:35:07.908Z,29.55
2018-07-14T16:37:37.146Z,29.20
2018-07-14T16:40:06.427Z,29.76
2018-07-14T16:42:35.663Z,29.55
2018-07-14T16:45:05.494Z,29.36
2018-07-14T16:47:34.727Z,30.18
2018-07-14T16:50:04.019Z,29.71
2018-07-14T16:52:33.173Z,30.66
2018-07-14T16:55:02.463Z,32.68
2018-07-14T16:57:31.721Z,33.82
2018-07-14T17:00:00.895Z,34.79
2018-07-14T17:02:29.744Z,34.58
2018-07-14T17:04:59.006Z,33.82
2018-07-14T17:07:27.603Z,32.97
2018-07-14T17:09:56.935Z,32.44
2018-07-14T17:12:26.019Z,33.60
2018-07-14T17:14:55.095Z,33.05
2018-07-14T17:17:24.183Z,32.92
2018-07-14T17:19:53.226Z,32.72
2018-07-14T17:22:22.292Z,33.41
2018-07-14T17:24:51.368Z,33.77
2018-07-14T17:27:20.620Z,34.02
2018-07-14T17:29:50.054Z,33.84
2018-07-14T17:32:19.402Z,34.99
2018-07-14T17:34:48.028Z,36.02
2018-07-14T17:37:17.088Z,35.55
2018-07-14T17:39:46.215Z,36.47
2018-07-14T17:42:15.273Z,37.72
2018-07-14T17:44:44.162Z,37.88
2018-07-14T17:47:13.245Z,37.99
2018-07-14T17:49:42.310Z,36.84
2018-07-14T17:52:11.422Z,37.88
2018-07-14T17:54:40.839Z,38.34
2018-07-14T17:57:09.867Z,38.68
2018-07-14T17:59:39.547Z,39.43
2018-07-14T18:02:08.862Z,39.48
2018-07-14T18:04:37.966Z,40.47
2018-07-14T18:07:07.272Z,40.50
2018-07-14T18:09:36.279Z,41.45
2018-07-14T18:12:05.478Z,41.33
2018-07-14T18:14:34.560Z,40.34
2018-07-14T18:17:03.610Z,42.50
2018-07-14T18:19:32.675Z,41.39
2018-07-14T18:22:01.726Z,43.81
2018-07-14T18:24:30.766Z,45.01
2018-07-14T18:27:00.039Z,45.09
2018-07-14T18:29:29.402Z,44.24
2018-07-14T18:31:58.678Z,44.47
2018-07-14T18:34:28.013Z,44.14
2018-07-14T18:36:57.299Z,43.36
2018-07-14T18:39:26.598Z,44.34
2018-07-14T18:41:55.894Z,44.91
2018-07-14T18:44:24.727Z,45.34
2018-07-14T18:46:54.079Z,45.55
2018-07-14T18:49:23.487Z,46.97
2018-07-14T18:51:52.702Z,46.60
2018-07-14T18:54:21.590Z,47.17
2018-07-14T18:56:50.839Z,47.78
2018-07-14T18:59:19.906Z,49.00
2018-07-14T19:01:48.958Z,50.44
2018-07-14T19:04:18.060Z,50.72
2018-07-14T19:06:47.354Z,51.34
2018-07-14T19:09:17.101Z,51.10
2018-07-14T19:11:46.992Z,52.69
2018-07-14T19:14:16.683Z,52.68
2018-07-14T19:16:45.800Z,53.28
2018-07-14T19:19:14.863Z,55.94
2018-07-14T19:21:43.958Z,55.74
2018-07-14T19:24:13.106Z,55.69
2018-07-14T19:26:42.198Z,55.72
2018-07-14T19:29:11.294Z,57.18
2018-07-14T19:31:40.459Z,56.93
2018-07-14T19:34:09.522Z,57.47
2018-07-14T19:36:38.781Z,56.99
2018-07-14T19:39:08.547Z,58.21
2018-07-14T19:41:38.462Z,58.14
2018-07-14T19:44:07.686Z,58.32
2018-07-14T19:46:37.559Z,57.82
2018-07-14T19:49:08.850Z,58.93
2018-07-14T19:51:38.427Z,58.81
2018-07-14T19:54:07.776Z,60.41
2018-07-14T19:56:37.289Z,60.43
2018-07-14T19:59:07.895Z,61.09
2018-07-14T20:01:37.240Z,61.25
2018-07-14T20:04:07.087Z,61.46
2018-07-14T20:06:36.712Z,61.16
2018-07-14T20:09:06.645Z,62.30
2018-07-14T20:11:35.752Z,62.14
2018-07-14T20:14:04.815Z,62.04
2018-07-14T20:16:33.903Z,62.60
2018-07-14T20:19:02.965Z,62.68
2018-07-14T20:21:32.023Z,62.99
2018-07-14T20:24:01.118Z,63.76
2018-07-14T20:26:30.382Z,64.66
2018-07-14T20:28:59.480Z,63.49
2018-07-14T20:31:34.758Z,63.44
2018-07-14T20:34:04.155Z,65.05
2018-07-14T20:36:33.235Z,65.64
2018-07-14T20:39:02.395Z,66.62
2018-07-14T20:41:32.434Z,66.94
2018-07-14T20:44:00.986Z,67.10
2018-07-14T20:46:30.163Z,66.31
2018-07-14T20:48:59.247Z,66.28
2018-07-14T20:51:28.670Z,66.12
2018-07-14T20:53:57.941Z,66.84
2018-07-14T20:56:27.912Z,67.73
2018-07-14T20:58:57.026Z,68.50
2018-07-14T21:01:25.777Z,69.67
2018-07-14T21:03:54.931Z,67.87
2018-07-14T21:06:24.036Z,68.17
2018-07-14T21:08:53.166Z,69.01
2018-07-14T21:11:25.086Z,68.57
2018-07-14T21:13:54.961Z,69.06
2018-07-14T21:18:59.402Z,69.82
2018-07-14T21:21:28.474Z,70.44
2018-07-14T21:23:57.542Z,70.93
2018-07-14T21:26:26.923Z,71.52
2018-07-14T21:28:56.558Z,71.33
2018-07-14T21:31:25.963Z,72.19
2018-07-14T21:33:55.323Z,72.33
2018-07-14T21:36:24.985Z,72.81
2018-07-14T21:38:55.048Z,72.60
2018-07-14T21:41:23.695Z,73.98
2018-07-14T21:43:53.238Z,74.45
2018-07-14T21:46:22.962Z,74.65
2018-07-14T21:48:52.015Z,75.31
2018-07-14T21:51:21.109Z,76.06
2018-07-14T21:53:50.206Z,76.76
2018-07-14T21:56:19.312Z,77.03
2018-07-14T21:58:48.387Z,77.88
2018-07-14T22:01:23.834Z,77.96
2018-07-14T22:03:53.175Z,78.82
2018-07-14T22:06:22.259Z,78.46
2018-07-14T22:08:52.219Z,79.50
2018-07-14T22:11:21.295Z,79.80
2018-07-14T22:13:50.459Z,79.67
2018-07-14T22:16:19.524Z,79.54
2018-07-14T22:18:48.606Z,80.02
2018-07-14T22:21:18.467Z,80.28
2018-07-14T22:23:47.566Z,80.69
2018-07-14T22:26:16.641Z,81.74
2018-07-14T22:28:45.718Z,81.65
2018-07-14T22:31:14.894Z,80.96
2018-07-14T22:33:43.946Z,81.64
2018-07-14T22:36:13.033Z,81.74
2018-07-14T22:38:42.102Z,81.40
2018-07-14T22:41:11.193Z,81.82
2018-07-14T22:43:40.258Z,82.78
2018-07-14T22:46:09.378Z,82.21
2018-07-14T22:48:38.550Z,82.74
2018-07-14T22:51:07.606Z,83.23
2018-07-14T22:53:36.724Z,82.68
2018-07-14T22:56:05.807Z,82.97
2018-07-14T22:58:34.931Z,84.33
2018-07-14T23:01:04.339Z,84.39
2018-07-14T23:03:33.817Z,83.93
2018-07-14T23:06:02.887Z,84.87
2018-07-14T23:08:32.021Z,85.66
2018-07-14T23:11:01.066Z,85.45
2018-07-14T23:13:30.475Z,86.43
2018-07-14T23:15:59.539Z,85.69
2018-07-14T23:18:28.638Z,84.99
2018-07-14T23:20:57.759Z,85.37
2018-07-14T23:23:26.819Z,85.21
2018-07-14T23:25:58.870Z,86.60
2018-07-14T23:28:27.942Z,87.00
2018-07-14T23:30:57.436Z,87.15
2018-07-14T23:33:26.487Z,87.29
2018-07-14T23:35:55.627Z,87.29
2018-07-14T23:38:24.729Z,87.57
2018-07-14T23:40:53.791Z,87.86
2018-07-14T23:43:22.934Z,87.78
2018-07-14T23:45:52.274Z,88.16
2018-07-14T23:48:20.978Z,88.79
2018-07-14T23:50:50.990Z,88.85
2018-07-14T23:53:20.062Z,89.94
2018-07-14T23:55:49.189Z,89.53
2018-07-14T23:58:18.326Z,89.25
